createdAt,value
2018-07-31T00:02:00.260Z,100550.84
2018-07-31T00:04:29.066Z,100546.55
2018-07-31T00:06:58.034Z,100552.34
2018-07-31T00:09:26.868Z,100555.13
2018-07-31T00:11:55.704Z,100564.50
2018-07-31T00:14:24.524Z,100554.44
2018-07-31T00:16:53.723Z,100551.09
2018-07-31T00:19:22.599Z,100553.72
2018-07-31T00:21:51.456Z,100557.82
2018-07-31T00:24:20.283Z,100559.97
2018-07-31T00:26:49.065Z,100558.34
2018-07-31T00:29:17.929Z,100556.20
2018-07-31T00:31:46.712Z,100556.81
2018-07-31T00:34:15.504Z,100550.52
2018-07-31T00:36:44.359Z,100552.06
2018-07-31T00:39:13.265Z,100548.13
2018-07-31T00:41:42.674Z,100548.52
2018-07-31T00:44:11.776Z,100539.77
2018-07-31T00:46:40.607Z,100534.65
2018-07-31T00:49:09.377Z,100545.77
2018-07-31T00:51:38.352Z,100538.20
2018-07-31T00:54:07.154Z,100539.70
2018-07-31T00:56:35.940Z,100538.73
2018-07-31T00:59:04.792Z,100536.80
2018-07-31T01:01:33.596Z,100537.19
2018-07-31T01:04:02.383Z,100536.97
2018-07-31T01:06:37.198Z,100533.41
2018-07-31T01:09:09.776Z,100533.67
2018-07-31T01:11:38.708Z,100530.61
2018-07-31T01:14:08.364Z,100525.11
2018-07-31T01:16:38.388Z,100518.45
2018-07-31T01:19:07.488Z,100512.49
2018-07-31T01:21:36.456Z,100509.00
2018-07-31T01:24:05.419Z,100509.64
2018-07-31T01:26:34.243Z,100515.42
2018-07-31T01:29:03.144Z,100515.31
2018-07-31T01:31:32.008Z,100516.81
2018-07-31T01:34:00.893Z,100513.22
2018-07-31T01:36:29.681Z,100519.19
2018-07-31T01:38:58.492Z,100522.95
2018-07-31T01:41:27.333Z,100520.03
2018-07-31T01:43:56.460Z,100517.23
2018-07-31T01:46:25.248Z,100518.88
2018-07-31T01:48:54.179Z,100509.78
2018-07-31T01:51:22.992Z,100512.56
2018-07-31T01:53:51.759Z,100506.71
2018-07-31T01:56:20.794Z,100510.56
2018-07-31T01:58:49.675Z,100510.33
2018-07-31T02:01:18.474Z,100519.42
2018-07-31T02:03:47.308Z,100523.31
2018-07-31T02:06:16.189Z,100522.02
2018-07-31T02:08:44.938Z,100517.63
2018-07-31T02:11:13.740Z,100515.83
2018-07-31T02:13:42.558Z,100516.66
2018-07-31T02:16:11.325Z,100516.53
2018-07-31T02:18:40.093Z,100519.34
2018-07-31T02:21:08.901Z,100520.70
2018-07-31T02:23:37.736Z,100522.86
2018-07-31T02:26:07.872Z,100525.87
2018-07-31T02:28:36.688Z,100529.61
2018-07-31T02:31:05.501Z,100532.73
2018-07-31T02:33:34.350Z,100537.21
2018-07-31T02:36:03.265Z,100534.73
2018-07-31T02:38:32.069Z,100539.05
2018-07-31T02:41:00.872Z,100532.59
2018-07-31T02:43:29.678Z,100533.09
2018-07-31T02:45:58.500Z,100536.44
2018-07-31T02:48:27.340Z,100537.08
2018-07-31T02:50:56.144Z,100540.88
2018-07-31T02:53:24.945Z,100536.91
2018-07-31T02:55:53.783Z,100538.69
2018-07-31T02:58:22.635Z,100541.14
2018-07-31T03:00:51.430Z,100543.58
2018-07-31T03:03:21.657Z,100541.34
2018-07-31T03:05:50.457Z,100546.78
2018-07-31T03:08:19.293Z,100548.84
2018-07-31T03:10:48.140Z,100546.98
2018-07-31T03:13:16.984Z,100544.51
2018-07-31T03:15:45.778Z,100549.23
2018-07-31T03:18:14.557Z,100543.70
2018-07-31T03:20:43.461Z,100548.37
2018-07-31T03:23:12.323Z,100548.74
2018-07-31T03:25:41.152Z,100544.61
2018-07-31T03:28:10.059Z,100553.08
2018-07-31T03:30:38.894Z,100549.84
2018-07-31T03:33:07.711Z,100552.08
2018-07-31T03:35:36.579Z,100550.27
2018-07-31T03:38:05.421Z,100553.77
2018-07-31T03:40:34.317Z,100556.25
2018-07-31T03:43:03.127Z,100555.41
2018-07-31T03:45:31.920Z,100561.81
2018-07-31T03:48:00.752Z,100558.47
2018-07-31T03:50:29.630Z,100557.72
2018-07-31T03:52:58.479Z,100556.36
2018-07-31T03:55:27.330Z,100557.58
2018-07-31T03:57:56.233Z,100559.73
2018-07-31T04:00:25.085Z,100568.25
2018-07-31T04:02:54.031Z,100563.92
2018-07-31T04:05:22.888Z,100566.02
2018-07-31T04:07:51.700Z,100568.02
2018-07-31T04:10:21.743Z,100564.75
2018-07-31T04:12:50.544Z,100566.02
2018-07-31T04:15:19.307Z,100570.74
2018-07-31T04:17:53.716Z,100579.30
2018-07-31T04:20:22.543Z,100580.48
2018-07-31T04:22:51.468Z,100582.78
2018-07-31T04:25:20.279Z,100573.83
2018-07-31T04:27:49.154Z,100570.62
2018-07-31T04:30:17.940Z,100571.87
2018-07-31T04:32:46.731Z,100564.83
2018-07-31T04:35:15.611Z,100568.91
2018-07-31T04:37:44.380Z,100565.23
2018-07-31T04:40:13.161Z,100567.22
2018-07-31T04:42:42.136Z,100564.88
2018-07-31T04:45:11.845Z,100563.07
2018-07-31T04:47:40.946Z,100557.38
2018-07-31T04:50:11.988Z,100560.47
2018-07-31T04:52:40.832Z,100556.70
2018-07-31T04:55:09.598Z,100558.48
2018-07-31T04:57:38.402Z,100564.55
2018-07-31T05:00:08.705Z,100563.72
2018-07-31T05:02:38.333Z,100573.33
2018-07-31T05:05:07.389Z,100570.06
2018-07-31T05:07:38.684Z,100579.14
2018-07-31T05:10:11.374Z,100577.50
2018-07-31T05:12:40.805Z,100566.31
2018-07-31T05:15:09.800Z,100585.48
2018-07-31T05:17:39.984Z,100584.38
2018-07-31T05:20:10.259Z,100596.34
2018-07-31T05:22:39.806Z,100584.98
2018-07-31T05:25:08.766Z,100595.20
2018-07-31T05:27:37.580Z,100594.77
2018-07-31T05:30:08.275Z,100598.70
2018-07-31T05:32:37.153Z,100602.77
2018-07-31T05:35:06.852Z,100605.47
2018-07-31T05:37:35.963Z,100606.44
2018-07-31T05:40:05.176Z,100613.20
2018-07-31T05:42:33.930Z,100613.29
2018-07-31T05:45:02.756Z,100615.58
2018-07-31T05:47:31.603Z,100614.38
2018-07-31T05:50:00.404Z,100613.37
2018-07-31T05:52:29.197Z,100613.34
2018-07-31T05:54:57.970Z,100610.42
2018-07-31T05:57:26.835Z,100619.90
2018-07-31T05:59:55.764Z,100613.24
2018-07-31T06:02:24.577Z,100620.78
2018-07-31T06:04:53.453Z,100621.09
2018-07-31T06:07:22.467Z,100615.11
2018-07-31T06:09:51.316Z,100613.17
2018-07-31T06:12:20.132Z,100612.20
2018-07-31T06:14:48.908Z,100608.52
2018-07-31T06:17:17.681Z,100609.22
2018-07-31T06:19:48.161Z,100603.23
2018-07-31T06:22:17.103Z,100601.05
2018-07-31T06:24:45.942Z,100599.09
2018-07-31T06:27:14.784Z,100598.69
2018-07-31T06:29:43.730Z,100592.61
2018-07-31T06:32:12.860Z,100595.89
2018-07-31T06:34:41.614Z,100595.40
2018-07-31T06:37:10.478Z,100601.38
2018-07-31T06:39:39.359Z,100590.59
2018-07-31T06:42:08.294Z,100589.36
2018-07-31T06:44:37.100Z,100596.48
2018-07-31T06:47:05.978Z,100609.28
2018-07-31T06:49:34.942Z,100600.73
2018-07-31T06:52:03.903Z,100609.81
2018-07-31T06:54:32.757Z,100604.11
2018-07-31T06:57:01.597Z,100607.41
2018-07-31T06:59:31.673Z,100609.89
2018-07-31T07:02:00.569Z,100618.96
2018-07-31T07:04:29.322Z,100617.20
2018-07-31T07:06:58.185Z,100619.88
2018-07-31T07:09:26.964Z,100626.83
2018-07-31T07:11:55.760Z,100621.96
2018-07-31T07:14:24.597Z,100627.50
2018-07-31T07:16:53.415Z,100619.86
2018-07-31T07:19:22.183Z,100613.91
2018-07-31T07:21:51.222Z,100617.36
2018-07-31T07:24:20.064Z,100613.56
2018-07-31T07:26:48.825Z,100606.16
2018-07-31T07:29:17.753Z,100609.59
2018-07-31T07:31:46.539Z,100606.66
2018-07-31T07:34:15.342Z,100602.34
2018-07-31T07:36:44.167Z,100599.29
2018-07-31T07:39:13.624Z,100611.39
2018-07-31T07:41:42.527Z,100622.57
2018-07-31T07:44:12.011Z,100634.04
2018-07-31T07:46:40.808Z,100639.70
2018-07-31T07:49:09.801Z,100652.50
2018-07-31T07:51:38.734Z,100653.30
2018-07-31T07:54:07.906Z,100647.55
2018-07-31T07:56:36.638Z,100655.84
2018-07-31T07:59:05.477Z,100661.45
2018-07-31T08:01:34.264Z,100662.81
2018-07-31T08:04:03.241Z,100665.58
2018-07-31T08:06:32.109Z,100666.11
2018-07-31T08:09:00.896Z,100661.28
2018-07-31T08:11:29.676Z,100657.88
2018-07-31T08:13:58.508Z,100654.31
2018-07-31T08:16:27.416Z,100649.38
2018-07-31T08:18:56.237Z,100653.28
2018-07-31T08:21:26.547Z,100651.17
2018-07-31T08:23:56.676Z,100658.50
2018-07-31T08:26:25.521Z,100652.70
2018-07-31T08:28:54.366Z,100652.02
2018-07-31T08:33:04.547Z,100663.03
2018-07-31T08:35:33.363Z,100664.57
2018-07-31T08:38:02.156Z,100654.75
2018-07-31T08:40:31.090Z,100651.94
2018-07-31T08:42:59.984Z,100654.29
2018-07-31T08:45:28.826Z,100649.36
2018-07-31T08:47:57.758Z,100648.47
2018-07-31T08:50:26.539Z,100647.91
2018-07-31T08:52:55.315Z,100643.66
2018-07-31T08:55:24.184Z,100638.12
2018-07-31T08:57:52.956Z,100637.61
2018-07-31T09:00:21.760Z,100643.87
2018-07-31T09:02:50.664Z,100641.14
2018-07-31T09:18:20.272Z,100649.23
2018-07-31T09:20:49.099Z,100653.34
2018-07-31T09:23:17.898Z,100656.67
2018-07-31T09:25:47.774Z,100655.72
2018-07-31T09:28:18.768Z,100652.48
2018-07-31T09:30:52.766Z,100648.62
2018-07-31T09:33:22.986Z,100640.73
2018-07-31T09:35:51.804Z,100642.28
2018-07-31T09:38:20.736Z,100641.31
2018-07-31T09:40:49.611Z,100640.46
2018-07-31T09:43:18.491Z,100642.34
2018-07-31T09:45:47.304Z,100640.00
2018-07-31T09:48:16.209Z,100641.77
2018-07-31T09:50:45.094Z,100633.17
2018-07-31T09:53:14.100Z,100629.02
2018-07-31T09:55:43.083Z,100633.16
2018-07-31T09:58:11.961Z,100627.75
2018-07-31T10:00:45.965Z,100634.34
2018-07-31T10:03:14.845Z,100629.34
2018-07-31T10:05:43.716Z,100634.62
2018-07-31T10:08:16.760Z,100624.15
2018-07-31T10:10:45.628Z,100625.34
2018-07-31T10:13:14.459Z,100629.52
2018-07-31T10:15:43.334Z,100632.81
2018-07-31T10:18:12.258Z,100627.92
2018-07-31T10:20:41.020Z,100632.23
2018-07-31T10:23:09.881Z,100628.15
2018-07-31T10:25:40.363Z,100617.87
2018-07-31T10:28:09.711Z,100619.61
2018-07-31T10:30:45.033Z,100623.28
2018-07-31T10:33:13.793Z,100615.66
2018-07-31T10:35:42.615Z,100614.91
2018-07-31T10:38:11.468Z,100612.91
2018-07-31T10:40:40.539Z,100616.91
2018-07-31T10:43:09.378Z,100609.75
2018-07-31T10:45:38.239Z,100609.23
2018-07-31T10:48:07.223Z,100605.43
2018-07-31T10:50:36.186Z,100603.84
2018-07-31T10:53:05.132Z,100603.00
2018-07-31T10:55:33.968Z,100607.34
2018-07-31T10:58:02.856Z,100603.86
2018-07-31T11:00:32.997Z,100604.79
2018-07-31T11:03:01.782Z,100606.53
2018-07-31T11:05:30.572Z,100603.06
2018-07-31T11:07:59.425Z,100599.42
2018-07-31T11:10:28.274Z,100604.80
2018-07-31T11:12:57.053Z,100605.64
2018-07-31T11:15:25.899Z,100607.55
2018-07-31T11:17:54.709Z,100610.77
2018-07-31T11:20:23.581Z,100605.39
2018-07-31T11:22:52.601Z,100607.45
2018-07-31T11:25:22.849Z,100611.91
2018-07-31T11:27:51.704Z,100606.44
2018-07-31T11:30:20.664Z,100604.09
2018-07-31T11:32:49.550Z,100602.78
2018-07-31T11:35:18.389Z,100609.63
2018-07-31T11:37:47.201Z,100602.44
2018-07-31T11:40:16.086Z,100595.81
2018-07-31T11:42:44.871Z,100598.73
2018-07-31T11:45:13.643Z,100597.38
2018-07-31T11:47:42.471Z,100592.91
2018-07-31T11:50:11.338Z,100594.28
2018-07-31T11:52:40.196Z,100592.75
2018-07-31T11:55:09.067Z,100598.95
2018-07-31T11:57:37.859Z,100599.53
2018-07-31T12:00:09.267Z,100598.73
2018-07-31T12:02:39.479Z,100589.70
2018-07-31T12:05:08.596Z,100597.38
2018-07-31T12:07:37.435Z,100594.19
2018-07-31T12:10:06.768Z,100587.09
2018-07-31T12:12:35.606Z,100586.59
2018-07-31T12:15:04.927Z,100584.12
2018-07-31T12:17:33.717Z,100578.23
2018-07-31T12:20:02.531Z,100577.47
2018-07-31T12:22:31.304Z,100584.15
2018-07-31T12:25:00.055Z,100573.95
2018-07-31T12:27:28.827Z,100576.37
2018-07-31T12:29:57.663Z,100567.98
2018-07-31T12:32:26.466Z,100576.56
2018-07-31T12:34:55.236Z,100567.98
2018-07-31T12:37:24.106Z,100571.61
2018-07-31T12:39:52.881Z,100570.68
2018-07-31T12:42:23.192Z,100569.39
2018-07-31T12:44:52.121Z,100573.22
2018-07-31T12:47:21.054Z,100569.58
2018-07-31T12:49:49.942Z,100569.95
2018-07-31T12:52:19.012Z,100575.89
2018-07-31T12:54:47.804Z,100577.55
2018-07-31T12:57:16.604Z,100574.16
2018-07-31T12:59:45.448Z,100578.23
2018-07-31T13:02:14.364Z,100569.59
2018-07-31T13:04:43.153Z,100569.70
2018-07-31T13:07:12.004Z,100569.86
2018-07-31T13:09:40.873Z,100562.91
2018-07-31T13:12:09.794Z,100564.97
2018-07-31T13:14:38.714Z,100560.47
2018-07-31T13:17:07.550Z,100553.27
2018-07-31T13:19:36.335Z,100552.47
2018-07-31T13:22:05.247Z,100553.58
2018-07-31T13:24:34.033Z,100554.89
2018-07-31T13:27:02.844Z,100557.16
2018-07-31T13:29:31.809Z,100552.54
2018-07-31T13:32:00.663Z,100548.80
2018-07-31T13:34:29.420Z,100553.20
2018-07-31T13:36:58.267Z,100547.49
2018-07-31T13:39:27.074Z,100540.17
2018-07-31T13:41:55.846Z,100543.94
2018-07-31T13:44:24.688Z,100545.37
2018-07-31T13:46:53.455Z,100538.84
2018-07-31T13:49:22.302Z,100540.49
2018-07-31T14:05:50.416Z,100526.28
2018-07-31T14:20:15.739Z,100520.67
2018-07-31T14:22:44.557Z,100520.48
2018-07-31T14:25:13.384Z,100520.40
2018-07-31T14:27:42.266Z,100521.25
2018-07-31T14:30:11.112Z,100521.13
2018-07-31T14:32:39.892Z,100517.02
2018-07-31T14:35:08.818Z,100515.08
2018-07-31T14:37:37.710Z,100514.84
2018-07-31T14:40:07.965Z,100511.48
2018-07-31T14:42:36.933Z,100518.77
2018-07-31T14:45:06.032Z,100515.95
2018-07-31T14:47:36.150Z,100513.61
2018-07-31T14:50:05.288Z,100514.86
2018-07-31T14:52:34.051Z,100518.84
2018-07-31T14:55:02.883Z,100513.44
2018-07-31T14:57:31.662Z,100513.97
2018-07-31T15:00:00.527Z,100514.94
2018-07-31T15:02:29.363Z,100514.16
2018-07-31T15:04:59.777Z,100518.20
2018-07-31T15:07:28.569Z,100516.80
2018-07-31T15:09:57.528Z,100514.48
2018-07-31T15:12:26.364Z,100519.08
2018-07-31T15:14:55.157Z,100520.83
2018-07-31T15:17:23.936Z,100514.59
2018-07-31T15:19:52.784Z,100520.91
2018-07-31T15:22:21.707Z,100510.55
2018-07-31T15:24:50.497Z,100512.09
2018-07-31T15:27:19.524Z,100510.20
2018-07-31T15:29:48.404Z,100506.56
2018-07-31T15:32:17.180Z,100508.41
2018-07-31T15:34:45.977Z,100518.13
2018-07-31T15:37:14.860Z,100518.89
2018-07-31T15:39:43.657Z,100523.44
2018-07-31T15:42:12.477Z,100524.93
2018-07-31T15:44:41.314Z,100523.67
2018-07-31T15:47:10.187Z,100523.19
2018-07-31T15:49:40.433Z,100522.09
2018-07-31T15:52:09.202Z,100521.91
2018-07-31T15:54:37.971Z,100520.17
2018-07-31T15:57:06.810Z,100516.60
2018-07-31T15:59:35.700Z,100517.16
2018-07-31T16:02:04.553Z,100516.10
2018-07-31T16:04:34.778Z,100523.69
2018-07-31T16:07:03.560Z,100522.88
2018-07-31T16:09:32.365Z,100520.66
2018-07-31T16:12:01.209Z,100523.00
2018-07-31T16:14:30.053Z,100521.52
2018-07-31T16:16:59.080Z,100526.34
2018-07-31T16:19:27.867Z,100525.49
2018-07-31T16:21:56.692Z,100532.37
2018-07-31T16:24:26.816Z,100537.17
2018-07-31T16:26:55.641Z,100536.21
2018-07-31T16:29:24.429Z,100542.67
2018-07-31T16:31:53.540Z,100545.93
2018-07-31T16:34:22.317Z,100542.63
2018-07-31T16:36:51.151Z,100543.09
2018-07-31T16:39:20.021Z,100541.76
2018-07-31T16:41:50.143Z,100542.82
2018-07-31T16:44:18.915Z,100550.40
2018-07-31T16:46:47.707Z,100555.84
2018-07-31T16:49:16.524Z,100560.64
2018-07-31T16:51:45.312Z,100556.25
2018-07-31T16:54:14.182Z,100559.14
2018-07-31T16:56:44.316Z,100560.52
2018-07-31T16:59:13.096Z,100565.62
2018-07-31T17:01:41.968Z,100572.50
2018-07-31T17:04:10.795Z,100571.02
2018-07-31T17:06:39.597Z,100567.19
2018-07-31T17:09:08.662Z,100572.03
2018-07-31T17:11:38.913Z,100573.48
2018-07-31T17:14:07.788Z,100579.32
2018-07-31T17:16:36.564Z,100577.80
2018-07-31T17:19:05.444Z,100576.60
2018-07-31T17:21:34.296Z,100582.98
2018-07-31T17:24:03.153Z,100590.19
2018-07-31T17:26:32.036Z,100590.33
2018-07-31T17:29:01.201Z,100592.68
2018-07-31T17:31:30.000Z,100597.13
2018-07-31T17:34:00.172Z,100598.85
2018-07-31T17:36:29.059Z,100603.53
2018-07-31T17:38:59.202Z,100597.60
2018-07-31T17:41:27.999Z,100604.11
2018-07-31T17:43:56.992Z,100603.46
2018-07-31T17:46:25.797Z,100606.50
2018-07-31T17:48:55.048Z,100607.34
2018-07-31T17:51:23.928Z,100605.92
2018-07-31T17:53:52.710Z,100608.59
2018-07-31T17:56:21.483Z,100614.72
2018-07-31T17:58:50.502Z,100616.58
2018-07-31T18:01:19.301Z,100622.85
2018-07-31T18:03:48.083Z,100618.95
2018-07-31T18:06:16.904Z,100620.28
2018-07-31T18:08:45.675Z,100619.88
2018-07-31T18:11:14.452Z,100620.50
2018-07-31T18:13:43.300Z,100619.37
2018-07-31T18:16:12.100Z,100622.86
2018-07-31T18:18:40.876Z,100621.23
2018-07-31T18:21:09.719Z,100623.27
2018-07-31T18:23:38.867Z,100636.20
2018-07-31T18:26:07.640Z,100637.34
2018-07-31T18:28:36.512Z,100634.64
2018-07-31T18:31:05.334Z,100639.22
2018-07-31T18:33:34.179Z,100638.71
2018-07-31T18:36:04.527Z,100641.38
2018-07-31T18:38:33.488Z,100646.13
2018-07-31T18:41:02.328Z,100649.78
2018-07-31T18:43:31.152Z,100641.59
2018-07-31T18:46:00.039Z,100652.55
2018-07-31T18:48:28.871Z,100659.11
2018-07-31T18:50:57.770Z,100658.38
2018-07-31T18:53:28.130Z,100662.70
2018-07-31T18:55:56.916Z,100659.72
2018-07-31T18:58:25.872Z,100650.07
2018-07-31T19:00:55.227Z,100645.06
2018-07-31T19:03:24.274Z,100648.93
2018-07-31T19:05:54.327Z,100646.67
2018-07-31T19:08:23.267Z,100640.33
2018-07-31T19:10:52.106Z,100640.74
2018-07-31T19:13:20.981Z,100636.20
2018-07-31T19:15:49.787Z,100637.95
2018-07-31T19:18:18.580Z,100637.22
2018-07-31T19:20:47.610Z,100636.44
2018-07-31T19:23:16.419Z,100629.30
2018-07-31T19:25:45.295Z,100635.17
2018-07-31T19:28:14.307Z,100630.56
2018-07-31T19:30:43.182Z,100633.48
2018-07-31T19:33:12.067Z,100636.24
2018-07-31T19:35:42.332Z,100637.63
2018-07-31T19:38:11.133Z,100630.66
2018-07-31T19:40:40.021Z,100625.94
2018-07-31T19:43:10.373Z,100621.86
2018-07-31T19:45:39.318Z,100627.61
2018-07-31T19:48:15.071Z,100629.64
2018-07-31T19:50:44.011Z,100635.72
2018-07-31T19:53:12.945Z,100637.94
2018-07-31T19:55:41.803Z,100644.12
2018-07-31T19:58:11.875Z,100641.94
2018-07-31T20:00:40.716Z,100645.48
2018-07-31T20:03:09.588Z,100654.16
2018-07-31T20:05:38.479Z,100642.91
2018-07-31T20:08:07.356Z,100646.78
2018-07-31T20:10:41.770Z,100649.14
2018-07-31T20:13:13.190Z,100651.28
2018-07-31T20:15:44.325Z,100655.61
2018-07-31T20:18:14.448Z,100648.43
2018-07-31T20:20:46.911Z,100652.74
2018-07-31T20:23:20.230Z,100651.78
2018-07-31T20:25:54.275Z,100655.26
2018-07-31T20:28:25.939Z,100658.48
2018-07-31T20:30:55.464Z,100662.17
2018-07-31T20:33:28.767Z,100661.34
2018-07-31T20:36:00.746Z,100660.57
2018-07-31T20:38:34.378Z,100661.92
2018-07-31T20:41:08.075Z,100663.08
2018-07-31T20:43:37.686Z,100664.28
2018-07-31T20:46:07.814Z,100657.49
2018-07-31T20:48:40.386Z,100663.00
2018-07-31T20:51:10.265Z,100658.44
2018-07-31T20:53:44.107Z,100669.69
2018-07-31T20:56:15.061Z,100660.75
2018-07-31T20:58:49.535Z,100664.89
2018-07-31T21:01:22.230Z,100632.31
2018-07-31T21:03:52.862Z,100668.27
2018-07-31T21:06:26.290Z,100668.87
2018-07-31T21:08:58.816Z,100667.66
2018-07-31T21:11:30.651Z,100660.45
2018-07-31T21:14:05.858Z,100661.30
2018-07-31T21:16:39.992Z,100657.84
2018-07-31T21:19:13.006Z,100650.08
2018-07-31T21:21:46.240Z,100657.75
2018-07-31T21:24:17.399Z,100661.14
2018-07-31T21:26:51.205Z,100659.64
2018-07-31T21:29:23.161Z,100651.30
2018-07-31T21:31:52.735Z,100659.08
2018-07-31T21:34:27.041Z,100656.98
2018-07-31T21:36:57.242Z,100653.61
2018-07-31T21:39:28.214Z,100654.00
2018-07-31T21:42:00.719Z,100657.63
2018-07-31T21:44:33.295Z,100648.45
2018-07-31T21:47:04.808Z,100646.33
2018-07-31T21:49:36.715Z,100653.01
2018-07-31T21:52:10.473Z,100656.22
2018-07-31T21:54:42.732Z,100657.14
2018-07-31T21:57:14.407Z,100650.94
2018-07-31T21:59:48.969Z,100661.52
2018-07-31T22:02:20.602Z,100660.41
2018-07-31T22:04:51.758Z,100664.80
2018-07-31T22:07:22.875Z,100659.29
2018-07-31T22:09:56.007Z,100656.34
2018-07-31T22:12:27.277Z,100652.16
2018-07-31T22:14:57.193Z,100650.42
2018-07-31T22:17:26.838Z,100645.80
2018-07-31T22:19:56.970Z,100627.05
2018-07-31T22:22:30.076Z,100638.73
2018-07-31T22:25:06.010Z,100634.02
2018-07-31T22:27:37.939Z,100630.28
2018-07-31T22:30:09.862Z,100626.13
2018-07-31T22:32:41.218Z,100629.57
2018-07-31T22:35:14.499Z,100622.48
2018-07-31T22:37:47.755Z,100632.14
2018-07-31T22:40:18.683Z,100629.59
2018-07-31T22:42:49.810Z,100629.42
2018-07-31T22:45:21.323Z,100629.55
2018-07-31T22:47:51.880Z,100622.28
2018-07-31T22:50:28.109Z,100608.38
2018-07-31T22:52:58.293Z,100612.11
2018-07-31T22:55:30.718Z,100613.78
2018-07-31T22:58:03.604Z,100603.80
2018-07-31T23:00:35.769Z,100615.81
2018-07-31T23:03:08.436Z,100609.91
2018-07-31T23:05:42.321Z,100611.46
2018-07-31T23:08:14.859Z,100615.84
2018-07-31T23:10:48.511Z,100613.95
2018-07-31T23:13:19.574Z,100603.64
2018-07-31T23:15:50.692Z,100606.17
2018-07-31T23:18:21.654Z,100611.36
2018-07-31T23:20:53.821Z,100617.22
2018-07-31T23:23:25.661Z,100627.33
2018-07-31T23:25:56.324Z,100624.63
2018-07-31T23:28:28.385Z,100628.45
2018-07-31T23:30:59.513Z,100635.09
2018-07-31T23:33:30.290Z,100638.84
2018-07-31T23:36:08.495Z,100625.47
2018-07-31T23:38:38.881Z,100639.32
2018-07-31T23:41:11.948Z,100629.49
2018-07-31T23:43:43.840Z,100630.47
2018-07-31T23:46:14.775Z,100634.22
2018-07-31T23:48:47.419Z,100636.52
2018-07-31T23:51:20.783Z,100624.65
2018-07-31T23:53:51.364Z,100620.72
2018-07-31T23:56:23.315Z,100623.59
2018-07-31T23:58:52.663Z,100617.25
